Time;durP1;ratioP1;P1;durP2;ratioP2;P2;SDS_P1;SDS_P2;PMS_P1;PMS_P2;Temp;Humidity;BMP_temperature;BMP_pressure;BME280_temperature;BME280_humidity;BME280_pressure;Samples;Min_cycle;Max_cycle;Signal;HPM_P1;HPM_P2
2023/03/30 00:00:19;;;;;;;13.32;6.88;;;;;;;14.86;52.49;100788.38;5052862;27;99292;-73
2023/03/30 00:02:48;;;;;;;12.95;6.95;;;;;;;14.64;53.01;100784.19;5058806;27;97217;-71
2023/03/30 00:05:17;;;;;;;11.02;6.50;;;;;;;14.77;53.03;100779.09;5057951;27;97221;-71
2023/03/30 00:07:44;;;;;;;9.32;6.38;;;;;;;14.84;53.10;100784.94;5063082;27;97180;-73
2023/03/30 00:10:13;;;;;;;7.80;6.00;;;;;;;14.70;53.24;100783.03;5056334;27;99362;-71
2023/03/30 00:12:40;;;;;;;10.23;6.45;;;;;;;14.77;53.19;100783.56;5053510;27;98882;-71
2023/03/30 00:15:08;;;;;;;10.55;6.55;;;;;;;15.02;52.50;100778.69;5056914;27;99000;-71
2023/03/30 00:17:35;;;;;;;10.43;6.68;;;;;;;14.82;53.48;100771.75;5058834;27;96830;-70
2023/03/30 00:20:04;;;;;;;8.55;6.30;;;;;;;14.66;54.13;100770.81;5057147;27;98958;-70
2023/03/30 00:22:32;;;;;;;10.60;6.28;;;;;;;14.67;54.32;100770.75;5058732;27;98959;-71
2023/03/30 00:24:59;;;;;;;11.30;6.03;;;;;;;14.79;53.76;100760.38;5058632;27;97242;-72
2023/03/30 00:27:25;;;;;;;10.32;5.78;;;;;;;14.48;54.80;100762.00;5051444;27;97241;-71
2023/03/30 00:29:52;;;;;;;7.65;5.95;;;;;;;14.59;55.42;100754.31;5056466;27;99783;-71
2023/03/30 00:32:18;;;;;;;8.85;6.03;;;;;;;14.86;54.71;100756.47;5054010;27;98816;-71
2023/03/30 00:34:45;;;;;;;13.13;6.20;;;;;;;14.64;55.44;100749.59;5051799;27;97528;-71
2023/03/30 00:37:11;;;;;;;7.13;5.63;;;;;;;14.54;55.52;100745.72;5058865;27;98771;-71
2023/03/30 00:39:40;;;;;;;11.38;6.40;;;;;;;14.47;56.27;100749.63;5055658;27;98818;-71
2023/03/30 00:42:07;;;;;;;12.65;5.93;;;;;;;14.54;56.24;100748.38;5055514;27;97765;-71
2023/03/30 00:45:16;;;;;;;9.93;6.53;;;;;;;14.65;56.28;100740.69;5055131;27;98793;-72
2023/03/30 00:47:48;;;;;;;7.43;5.72;;;;;;;14.68;56.10;100737.88;5051973;27;96907;-72
2023/03/30 00:50:16;;;;;;;8.07;5.38;;;;;;;14.67;55.82;100729.97;5053422;27;98777;-72
2023/03/30 00:52:45;;;;;;;23.48;5.88;;;;;;;14.40;56.68;100726.97;5050771;27;98935;-72
2023/03/30 00:55:13;;;;;;;9.27;6.05;;;;;;;14.53;56.65;100712.09;5060633;27;96993;-71
2023/03/30 00:57:43;;;;;;;10.30;5.47;;;;;;;14.41;56.95;100709.22;5051944;27;97228;-72
2023/03/30 01:00:10;;;;;;;10.60;5.85;;;;;;;14.61;56.76;100709.03;5055684;27;99272;-71
2023/03/30 01:02:41;;;;;;;13.80;6.47;;;;;;;14.65;56.36;100706.13;5050599;27;99067;-70
2023/03/30 01:05:09;;;;;;;8.50;5.93;;;;;;;14.37;57.74;100697.84;5059045;27;99045;-72
2023/03/30 01:07:38;;;;;;;7.25;5.40;;;;;;;14.47;57.47;100690.28;5055187;27;97819;-71
2023/03/30 01:10:07;;;;;;;10.10;5.43;;;;;;;14.71;56.98;100688.97;5056060;27;98995;-71
2023/03/30 01:12:35;;;;;;;9.27;6.03;;;;;;;14.52;57.35;100678.47;5049726;27;101123;-71
2023/03/30 01:15:02;;;;;;;8.70;6.22;;;;;;;14.71;56.68;100675.69;5055380;27;97920;-72
2023/03/30 01:17:36;;;;;;;7.78;5.38;;;;;;;14.84;56.42;100668.75;5057391;27;97248;-71
2023/03/30 01:20:37;;;;;;;9.52;5.32;;;;;;;14.80;56.50;100661.03;5057659;27;99043;-72
2023/03/30 01:23:26;;;;;;;7.80;5.53;;;;;;;14.55;57.30;100656.19;5051247;27;101912;-72
2023/03/30 01:26:17;;;;;;;8.38;5.70;;;;;;;14.60;57.46;100646.16;5054947;27;97483;-72
2023/03/30 01:28:52;;;;;;;10.98;5.70;;;;;;;14.48;57.91;100645.00;5054482;27;98789;-71
2023/03/30 01:32:08;;;;;;;8.40;6.03;;;;;;;14.59;57.50;100637.31;5056899;27;99134;-71
2023/03/30 01:35:09;;;;;;;9.65;5.70;;;;;;;14.49;57.82;100638.75;5049959;27;98788;-70
2023/03/30 01:38:24;;;;;;;9.25;5.45;;;;;;;14.60;57.60;100627.53;5057796;27;97653;-70
2023/03/30 01:41:05;;;;;;;9.48;6.55;;;;;;;14.09;59.92;100628.47;5035345;27;99982;-71
2023/03/30 01:43:37;;;;;;;11.70;6.32;;;;;;;14.16;59.64;100632.53;5052271;27;99395;-71
2023/03/30 01:46:09;;;;;;;8.48;6.05;;;;;;;14.13;59.43;100625.56;5052070;27;101786;-70
2023/03/30 01:48:44;;;;;;;9.32;6.10;;;;;;;14.31;58.58;100610.44;5057537;27;98121;-70
2023/03/30 01:51:14;;;;;;;10.48;6.43;;;;;;;14.16;59.18;100616.56;5055562;27;97143;-70
2023/03/30 01:53:48;;;;;;;8.80;5.80;;;;;;;14.29;58.81;100607.03;5055177;27;97971;-71
2023/03/30 01:56:23;;;;;;;8.68;6.22;;;;;;;14.37;58.87;100610.13;5053817;27;98848;-70
2023/03/30 01:58:53;;;;;;;9.25;5.88;;;;;;;14.23;58.84;100604.69;5055916;27;97942;-71
2023/03/30 02:01:21;;;;;;;7.88;6.35;;;;;;;14.47;58.37;100606.06;5054150;27;96934;-71
2023/03/30 02:03:53;;;;;;;8.95;5.68;;;;;;;14.67;57.94;100608.50;5049389;27;98996;-71
2023/03/30 02:06:25;;;;;;;9.20;6.15;;;;;;;14.80;57.46;100607.84;5063065;27;99110;-71
2023/03/30 02:08:54;;;;;;;9.23;5.93;;;;;;;14.65;57.86;100620.16;5057007;27;96881;-71
2023/03/30 02:11:25;;;;;;;8.38;6.03;;;;;;;14.57;57.72;100611.75;5056081;27;97204;-71
2023/03/30 02:13:57;;;;;;;8.57;6.20;;;;;;;14.35;58.41;100601.38;5058414;27;97689;-71
2023/03/30 02:16:31;;;;;;;7.50;5.78;;;;;;;14.35;58.29;100604.91;5062797;27;99860;-72
2023/03/30 02:18:58;;;;;;;9.35;5.90;;;;;;;14.42;58.04;100605.47;5060889;27;97537;-72
2023/03/30 02:21:26;;;;;;;12.30;5.80;;;;;;;14.36;58.35;100588.00;5059985;27;97777;-72
2023/03/30 02:23:54;;;;;;;7.97;5.82;;;;;;;14.21;58.87;100590.63;5054305;27;100286;-72
2023/03/30 02:26:23;;;;;;;11.50;5.97;;;;;;;14.42;58.27;100588.66;5057751;27;99176;-73
2023/03/30 02:28:49;;;;;;;10.77;6.47;;;;;;;14.56;57.73;100583.44;5055794;27;96838;-72
2023/03/30 02:31:16;;;;;;;9.02;5.65;;;;;;;14.31;58.33;100579.41;5054475;27;96944;-71
2023/03/30 02:33:59;;;;;;;10.50;5.82;;;;;;;14.29;58.56;100564.50;5059260;27;99260;-71
2023/03/30 02:36:43;;;;;;;7.82;5.72;;;;;;;14.13;58.90;100571.56;5053102;27;98967;-72
2023/03/30 02:39:18;;;;;;;7.93;5.20;;;;;;;14.27;58.65;100566.38;5062888;27;97587;-71
2023/03/30 02:42:13;;;;;;;9.50;5.47;;;;;;;14.21;58.98;100562.25;5058885;27;98138;-72
2023/03/30 02:44:46;;;;;;;10.07;6.22;;;;;;;14.27;58.60;100561.06;5061890;27;100277;-72
2023/03/30 02:47:20;;;;;;;11.48;6.05;;;;;;;14.09;59.36;100543.44;5065142;27;98916;-71
2023/03/30 02:49:54;;;;;;;8.40;5.53;;;;;;;14.12;59.30;100537.94;5056481;27;97325;-72
2023/03/30 02:52:39;;;;;;;8.10;5.75;;;;;;;14.15;59.40;100536.00;5051420;27;96684;-73
2023/03/30 02:55:17;;;;;;;9.43;5.45;;;;;;;14.09;59.20;100540.78;5053116;27;101221;-71
2023/03/30 02:57:54;;;;;;;9.55;6.40;;;;;;;14.15;59.11;100535.13;5063223;27;99610;-71
2023/03/30 03:00:27;;;;;;;8.07;5.50;;;;;;;14.01;59.67;100524.38;5055692;27;98797;-72
2023/03/30 03:02:59;;;;;;;7.65;5.47;;;;;;;14.07;59.33;100527.56;5052632;27;97793;-71
2023/03/30 03:05:27;;;;;;;9.25;5.63;;;;;;;14.19;59.18;100518.06;5054980;27;98944;-72
2023/03/30 03:07:55;;;;;;;8.35;5.88;;;;;;;14.05;59.54;100518.81;5057408;27;98712;-72
2023/03/30 03:10:21;;;;;;;9.80;5.70;;;;;;;14.17;59.38;100514.66;5054552;27;98736;-71
2023/03/30 03:12:50;;;;;;;11.25;6.30;;;;;;;14.27;59.23;100506.09;5060662;27;97260;-72
2023/03/30 03:15:16;;;;;;;7.15;5.47;;;;;;;14.22;59.09;100509.97;5061867;27;98964;-71
2023/03/30 03:17:44;;;;;;;9.55;5.15;;;;;;;14.25;59.42;100509.78;5060171;27;98930;-71
2023/03/30 03:20:12;;;;;;;7.82;5.25;;;;;;;14.38;59.01;100512.66;5055742;27;96918;-70
2023/03/30 03:22:39;;;;;;;10.00;5.38;;;;;;;14.02;59.94;100505.72;5057691;27;97400;-71
2023/03/30 03:25:06;;;;;;;8.52;5.47;;;;;;;13.98;60.21;100506.78;5055926;27;101507;-71
2023/03/30 03:27:32;;;;;;;6.15;4.97;;;;;;;13.83;60.99;100503.19;5061694;27;100893;-71
2023/03/30 03:30:00;;;;;;;8.65;5.45;;;;;;;13.82;61.03;100495.28;5058376;27;97357;-71
2023/03/30 03:32:26;;;;;;;8.30;5.82;;;;;;;13.79;61.10;100485.66;5055661;27;97112;-70
2023/03/30 03:34:53;;;;;;;8.52;5.25;;;;;;;13.98;60.73;100487.38;5061564;27;102174;-70
2023/03/30 03:37:19;;;;;;;10.63;5.07;;;;;;;13.89;60.89;100488.72;5055021;27;98571;-70
2023/03/30 03:39:45;;;;;;;8.23;5.47;;;;;;;13.88;61.02;100479.88;5053696;27;99002;-71
2023/03/30 03:42:12;;;;;;;9.93;5.63;;;;;;;14.01;60.71;100474.78;5057069;27;98900;-70
2023/03/30 03:44:39;;;;;;;8.02;5.45;;;;;;;13.92;60.76;100473.44;5055721;27;98210;-69
2023/03/30 03:47:07;;;;;;;7.72;5.55;;;;;;;14.03;60.26;100472.91;5063120;27;98940;-69
2023/03/30 03:49:33;;;;;;;11.60;5.88;;;;;;;14.06;60.26;100478.03;5058969;27;96909;-72
2023/03/30 03:51:59;;;;;;;7.57;5.78;;;;;;;13.92;60.65;100465.47;5055267;27;97238;-71
2023/03/30 03:54:26;;;;;;;8.60;5.80;;;;;;;13.96;60.78;100461.75;5055404;27;101407;-71
2023/03/30 03:56:52;;;;;;;9.90;6.40;;;;;;;13.85;61.06;100452.59;5059347;27;98910;-71
2023/03/30 03:59:19;;;;;;;8.50;6.30;;;;;;;14.15;60.05;100455.44;5059533;27;96844;-72
2023/03/30 04:01:45;;;;;;;11.45;6.07;;;;;;;14.31;59.86;100441.19;5059628;27;98496;-73
2023/03/30 04:04:13;;;;;;;11.48;6.45;;;;;;;14.27;59.75;100444.97;5052445;27;99027;-72
2023/03/30 04:06:39;;;;;;;9.60;6.47;;;;;;;14.17;60.31;100441.13;5057626;27;99388;-72
2023/03/30 04:09:06;;;;;;;9.63;5.88;;;;;;;14.34;59.48;100430.41;5064677;27;97071;-72
2023/03/30 04:11:32;;;;;;;11.27;6.00;;;;;;;14.28;59.61;100420.13;5054439;27;97789;-72
2023/03/30 04:13:59;;;;;;;11.50;6.95;;;;;;;14.19;60.15;100422.41;5054635;27;99371;-73
2023/03/30 04:16:25;;;;;;;13.35;7.35;;;;;;;14.21;59.95;100413.44;5056683;27;98890;-73
2023/03/30 04:18:51;;;;;;;9.32;6.57;;;;;;;14.08;60.38;100406.22;5054652;27;96907;-71
2023/03/30 04:21:21;;;;;;;12.40;8.05;;;;;;;14.14;60.52;100420.03;5054584;27;98707;-71
2023/03/30 04:23:48;;;;;;;11.93;6.28;;;;;;;14.06;60.60;100411.59;5056608;27;99674;-71
2023/03/30 04:26:16;;;;;;;9.80;5.88;;;;;;;14.10;60.59;100409.66;5053623;27;99199;-72
2023/03/30 04:28:42;;;;;;;10.25;6.38;;;;;;;14.28;59.89;100420.13;5052249;27;97604;-72
2023/03/30 04:31:11;;;;;;;10.88;6.60;;;;;;;14.28;60.02;100411.28;5050814;27;97498;-72
2023/03/30 04:33:44;;;;;;;12.70;7.07;;;;;;;14.20;60.19;100417.03;5056631;27;98973;-72
2023/03/30 04:36:11;;;;;;;8.18;5.90;;;;;;;14.16;60.39;100412.84;5055461;27;98875;-73
2023/03/30 04:38:41;;;;;;;12.20;7.00;;;;;;;14.07;60.58;100409.81;5057641;27;97036;-72
2023/03/30 04:41:08;;;;;;;8.93;5.82;;;;;;;14.02;60.90;100406.56;5058147;27;99467;-72
2023/03/30 04:43:35;;;;;;;8.43;5.78;;;;;;;14.26;60.13;100403.38;5054537;27;98948;-72
2023/03/30 04:46:01;;;;;;;8.18;5.90;;;;;;;14.09;60.75;100392.84;5053448;27;98899;-71
2023/03/30 04:48:28;;;;;;;11.73;6.45;;;;;;;14.18;60.36;100400.28;5054602;27;97186;-71
2023/03/30 04:50:54;;;;;;;8.43;5.75;;;;;;;14.15;60.41;100403.13;5051946;27;99289;-71
2023/03/30 04:53:21;;;;;;;10.73;6.30;;;;;;;14.33;60.09;100402.09;5051668;27;98964;-71
2023/03/30 04:55:51;;;;;;;12.07;6.55;;;;;;;14.29;59.92;100394.41;5052295;27;99610;-71
2023/03/30 04:58:18;;;;;;;12.70;6.00;;;;;;;14.18;60.18;100402.09;5052502;27;97571;-72
2023/03/30 05:00:46;;;;;;;16.70;6.72;;;;;;;14.27;60.08;100401.59;5050041;27;98589;-77
2023/03/30 05:03:12;;;;;;;9.90;6.03;;;;;;;14.20;60.24;100401.06;5053937;27;99029;-76
2023/03/30 05:05:39;;;;;;;13.38;6.13;;;;;;;14.28;60.01;100409.50;5054276;27;98926;-76
2023/03/30 05:08:06;;;;;;;10.82;6.53;;;;;;;14.20;60.10;100394.91;5054856;27;96901;-78
2023/03/30 05:10:32;;;;;;;11.23;5.88;;;;;;;14.15;60.18;100395.16;5049920;27;97319;-76
2023/03/30 05:13:00;;;;;;;9.02;6.18;;;;;;;14.34;59.62;100395.00;5052355;27;99315;-75
2023/03/30 05:15:26;;;;;;;10.38;6.70;;;;;;;14.45;59.19;100384.63;5052847;27;98940;-77
2023/03/30 05:17:53;;;;;;;9.77;6.35;;;;;;;14.21;59.76;100370.06;5053722;27;97674;-76
2023/03/30 05:20:19;;;;;;;10.40;6.28;;;;;;;14.28;59.79;100356.34;5051705;27;99169;-75
2023/03/30 05:22:46;;;;;;;11.50;6.45;;;;;;;14.31;59.63;100342.84;5050797;27;100787;-76
2023/03/30 05:25:15;;;;;;;10.10;6.13;;;;;;;14.36;59.31;100340.81;5048055;27;99225;-77
2023/03/30 05:27:41;;;;;;;8.48;5.93;;;;;;;14.12;59.98;100343.97;5050964;27;96979;-76
2023/03/30 05:30:10;;;;;;;12.90;6.60;;;;;;;14.31;59.51;100336.69;5052264;27;97655;-77
2023/03/30 05:32:37;;;;;;;9.13;6.18;;;;;;;14.35;59.26;100331.13;5057499;27;99047;-77
2023/03/30 05:35:04;;;;;;;11.02;6.28;;;;;;;14.25;59.55;100337.88;5053469;27;99525;-71
2023/03/30 05:37:31;;;;;;;8.40;6.70;;;;;;;14.24;59.54;100353.94;5058005;27;96870;-70
2023/03/30 05:39:57;;;;;;;11.32;5.80;;;;;;;14.30;59.48;100353.59;5053040;27;96847;-72
2023/03/30 05:42:24;;;;;;;9.90;5.90;;;;;;;14.29;59.33;100354.53;5053013;27;97884;-72
2023/03/30 05:44:50;;;;;;;8.73;5.97;;;;;;;14.25;59.25;100350.31;5050730;27;99553;-70
2023/03/30 05:47:18;;;;;;;9.15;6.47;;;;;;;14.21;59.47;100351.44;5051835;27;97909;-71
2023/03/30 05:49:45;;;;;;;9.48;6.10;;;;;;;14.15;59.60;100346.47;5058349;27;96953;-73
2023/03/30 05:52:12;;;;;;;8.07;5.40;;;;;;;14.14;59.80;100327.03;5051772;27;99725;-71
2023/03/30 05:54:38;;;;;;;9.55;5.75;;;;;;;14.10;59.86;100333.47;5061095;27;99197;-70
2023/03/30 05:57:04;;;;;;;10.55;6.05;;;;;;;14.15;59.87;100338.50;5054329;27;96847;-71
2023/03/30 05:59:31;;;;;;;10.73;5.68;;;;;;;14.17;59.51;100337.50;5060559;27;96975;-72
2023/03/30 06:01:59;;;;;;;13.55;5.93;;;;;;;14.36;59.20;100334.63;5059641;27;97972;-72
2023/03/30 06:04:27;;;;;;;9.80;5.55;;;;;;;14.32;59.05;100333.94;5059204;27;99204;-72
2023/03/30 06:06:53;;;;;;;10.63;6.03;;;;;;;14.25;59.15;100319.28;5056922;27;97342;-71
2023/03/30 06:09:22;;;;;;;8.43;5.97;;;;;;;14.41;58.75;100313.13;5059480;27;97242;-73
2023/03/30 06:11:48;;;;;;;9.77;5.75;;;;;;;14.31;58.96;100312.75;5055403;27;98853;-72
2023/03/30 06:14:16;;;;;;;9.93;5.55;;;;;;;14.47;58.39;100310.13;5056400;27;98866;-71
2023/03/30 06:16:42;;;;;;;11.18;5.35;;;;;;;14.65;57.91;100306.38;5052925;27;98913;-72
2023/03/30 06:19:08;;;;;;;10.40;5.60;;;;;;;14.62;57.83;100301.25;5059752;27;97355;-71
2023/03/30 06:21:36;;;;;;;7.68;5.50;;;;;;;14.74;57.68;100305.84;5065059;27;97709;-72
2023/03/30 06:24:03;;;;;;;9.52;5.82;;;;;;;14.80;57.38;100299.28;5052770;27;99486;-72
2023/03/30 06:26:29;;;;;;;12.43;5.63;;;;;;;14.77;57.46;100295.84;5064710;27;96990;-72
2023/03/30 06:28:56;;;;;;;10.10;5.45;;;;;;;14.92;56.84;100280.78;5055760;27;96961;-73
2023/03/30 06:31:23;;;;;;;8.35;5.47;;;;;;;15.04;56.75;100282.69;5059588;27;100753;-71
2023/03/30 06:33:50;;;;;;;11.50;5.85;;;;;;;15.20;56.14;100279.09;5061523;27;101395;-70
2023/03/30 06:36:16;;;;;;;7.93;5.47;;;;;;;15.38;55.59;100286.78;5053957;27;98759;-74
2023/03/30 06:38:47;;;;;;;11.15;5.90;;;;;;;15.30;55.86;100278.44;5057464;27;98073;-71
2023/03/30 06:41:14;;;;;;;10.48;6.15;;;;;;;15.47;55.41;100283.56;5059135;27;99025;-73
2023/03/30 06:43:40;;;;;;;9.60;5.25;;;;;;;15.34;55.40;100293.28;5059697;27;99212;-71
2023/03/30 06:46:10;;;;;;;12.60;5.32;;;;;;;15.19;56.24;100290.69;5052959;27;97168;-71
2023/03/30 06:48:36;;;;;;;10.57;5.80;;;;;;;15.38;55.96;100292.13;5053248;27;96926;-71
2023/03/30 06:51:26;;;;;;;8.32;5.10;;;;;;;15.36;55.39;100294.00;5057039;27;99427;-72
2023/03/30 06:53:54;;;;;;;9.68;5.40;;;;;;;15.37;55.85;100285.06;5060945;27;99207;-73
2023/03/30 06:59:14;;;;;;;13.57;5.22;;;;;;;15.62;55.23;100276.44;5059400;27;96915;-77
2023/03/30 07:01:41;;;;;;;8.27;5.38;;;;;;;15.72;54.55;100274.03;5054954;27;101771;-76
2023/03/30 07:04:08;;;;;;;9.50;4.88;;;;;;;15.50;55.06;100270.03;5054409;27;98869;-76
2023/03/30 07:06:35;;;;;;;8.27;5.25;;;;;;;15.60;54.74;100267.69;5055422;27;97839;-74
2023/03/30 07:09:04;;;;;;;7.80;5.13;;;;;;;15.56;54.46;100268.84;5058436;27;97388;-75
2023/03/30 07:11:31;;;;;;;10.95;5.30;;;;;;;15.37;55.36;100258.47;5052421;27;99061;-78
2023/03/30 07:13:59;;;;;;;8.68;5.65;;;;;;;15.76;54.82;100249.75;5052358;27;98861;-77
2023/03/30 07:16:26;;;;;;;11.20;4.85;;;;;;;16.05;53.95;100253.22;5056081;27;97131;-76
2023/03/30 07:18:53;;;;;;;10.73;5.18;;;;;;;16.08;53.41;100246.84;5056092;27;97206;-77
2023/03/30 07:21:19;;;;;;;8.75;5.13;;;;;;;16.36;53.04;100252.03;5055366;27;99358;-74
2023/03/30 07:23:46;;;;;;;9.77;5.22;;;;;;;16.42;52.86;100248.94;5057832;27;102354;-75
2023/03/30 07:26:13;;;;;;;9.82;5.28;;;;;;;16.77;51.83;100243.91;5054673;27;97371;-75
2023/03/30 07:28:40;;;;;;;11.05;4.93;;;;;;;17.03;51.01;100252.78;5055962;27;98690;-71
2023/03/30 07:31:08;;;;;;;8.63;5.15;;;;;;;16.86;51.40;100247.78;5053840;27;102440;-72
2023/03/30 07:33:35;;;;;;;8.77;4.93;;;;;;;16.92;51.07;100237.53;5055277;27;98062;-71
2023/03/30 07:36:02;;;;;;;9.27;4.55;;;;;;;17.10;50.65;100238.03;5061915;27;96935;-72
2023/03/30 07:38:29;;;;;;;8.48;4.50;;;;;;;16.83;51.19;100219.47;5052931;27;97283;-71
2023/03/30 07:40:56;;;;;;;10.60;4.88;;;;;;;16.99;50.83;100228.13;5055015;27;98864;-73
2023/03/30 07:43:24;;;;;;;7.85;4.50;;;;;;;17.24;50.22;100231.72;5062240;27;102109;-71
2023/03/30 07:45:51;;;;;;;7.40;4.60;;;;;;;17.39;50.09;100233.31;5050186;27;97351;-70
2023/03/30 07:48:17;;;;;;;7.78;4.43;;;;;;;17.16;50.41;100231.41;5056182;27;96793;-73
2023/03/30 07:50:43;;;;;;;7.30;4.55;;;;;;;17.48;49.93;100235.31;5053480;27;99367;-76
2023/03/30 07:53:10;;;;;;;5.93;4.30;;;;;;;17.50;49.47;100220.88;5062846;27;99291;-76
2023/03/30 07:55:36;;;;;;;7.22;4.78;;;;;;;17.66;49.26;100219.78;5050285;27;97524;-76
2023/03/30 07:58:03;;;;;;;8.20;4.10;;;;;;;17.97;48.03;100215.72;5059070;27;97597;-76
2023/03/30 08:00:31;;;;;;;6.28;4.10;;;;;;;18.50;46.74;100212.53;5057492;27;99375;-76
2023/03/30 08:02:58;;;;;;;10.30;4.35;;;;;;;18.36;46.70;100226.09;5044380;27;98867;-72
2023/03/30 08:05:24;;;;;;;8.85;3.70;;;;;;;18.19;47.55;100222.00;5057788;27;96854;-71
2023/03/30 08:07:50;;;;;;;8.02;3.90;;;;;;;18.21;47.00;100219.22;5062050;27;97080;-72
2023/03/30 08:10:17;;;;;;;8.98;4.53;;;;;;;18.32;47.12;100221.94;5055693;27;99270;-71
2023/03/30 08:12:43;;;;;;;9.65;3.90;;;;;;;18.11;47.33;100212.88;5058910;27;98923;-72
2023/03/30 08:15:10;;;;;;;8.48;3.83;;;;;;;18.44;47.33;100220.19;5053581;27;97332;-73
2023/03/30 08:17:38;;;;;;;10.32;4.13;;;;;;;19.06;45.94;100208.16;5053151;27;96837;-72
2023/03/30 08:20:09;;;;;;;8.23;4.20;;;;;;;19.21;45.00;100213.25;5060169;27;98961;-72
2023/03/30 08:22:35;;;;;;;7.78;3.80;;;;;;;18.95;45.35;100207.28;5057906;27;100868;-71
2023/03/30 08:25:02;;;;;;;15.43;4.07;;;;;;;19.18;44.81;100203.63;5052190;27;97438;-72
2023/03/30 08:27:28;;;;;;;8.85;3.70;;;;;;;19.41;44.89;100186.59;5059041;27;97245;-77
2023/03/30 08:29:55;;;;;;;7.53;4.38;;;;;;;19.47;44.35;100180.75;5054320;27;98933;-76
2023/03/30 08:32:21;;;;;;;10.65;3.60;;;;;;;19.40;44.77;100184.88;5051553;27;98811;-78
2023/03/30 08:34:49;;;;;;;7.45;2.90;;;;;;;19.31;44.29;100184.75;5051469;27;97705;-77
2023/03/30 08:37:19;;;;;;;7.22;2.97;;;;;;;19.46;44.07;100167.47;5062640;27;101610;-76
2023/03/30 08:39:46;;;;;;;11.85;3.30;;;;;;;19.91;43.12;100178.91;5058620;27;98894;-78
2023/03/30 08:42:28;;;;;;;5.28;2.90;;;;;;;19.88;43.21;100179.19;5064411;27;97557;-76
2023/03/30 08:45:02;;;;;;;5.75;2.88;;;;;;;20.08;42.69;100175.72;5059472;27;96964;-76
2023/03/30 08:47:33;;;;;;;5.88;2.50;;;;;;;20.22;42.12;100178.06;5058977;27;98569;-76
2023/03/30 08:50:07;;;;;;;7.35;2.63;;;;;;;20.40;41.96;100183.75;5056534;27;98922;-77
2023/03/30 08:52:35;;;;;;;6.75;2.67;;;;;;;20.63;41.88;100181.75;5058053;27;100957;-76
2023/03/30 08:55:02;;;;;;;5.03;2.72;;;;;;;20.35;41.32;100166.34;5060906;27;97579;-76
2023/03/30 08:57:41;;;;;;;8.63;2.35;;;;;;;20.33;41.66;100170.97;5059947;27;97703;-78
2023/03/30 09:00:18;;;;;;;5.03;2.33;;;;;;;20.35;41.64;100160.97;5056618;27;97958;-78
2023/03/30 09:02:48;;;;;;;7.28;2.50;;;;;;;20.48;41.21;100161.63;5056781;27;98450;-76
2023/03/30 09:05:22;;;;;;;8.02;2.55;;;;;;;20.45;41.31;100164.56;5060336;27;96831;-74
2023/03/30 09:07:59;;;;;;;8.10;2.58;;;;;;;20.82;40.55;100167.59;5059219;27;97080;-77
2023/03/30 09:10:28;;;;;;;9.32;2.42;;;;;;;21.18;40.00;100171.63;5057611;27;98947;-76
2023/03/30 09:12:57;;;;;;;8.70;2.22;;;;;;;20.97;40.08;100167.13;5058965;27;98919;-76
2023/03/30 09:15:28;;;;;;;11.93;2.85;;;;;;;21.32;40.25;100165.88;5055983;27;97202;-77
2023/03/30 09:18:00;;;;;;;8.85;2.55;;;;;;;21.05;40.20;100163.75;5056485;27;98315;-76
2023/03/30 09:20:30;;;;;;;8.82;2.38;;;;;;;21.41;39.64;100156.97;5059959;27;99341;-76
2023/03/30 09:23:00;;;;;;;6.60;2.47;;;;;;;21.50;39.48;100155.31;5060398;27;99116;-76
2023/03/30 09:25:33;;;;;;;10.60;2.38;;;;;;;21.57;39.43;100157.31;5050212;27;97766;-77
2023/03/30 09:28:08;;;;;;;16.00;2.50;;;;;;;21.47;38.95;100151.03;5062641;27;96816;-74
2023/03/30 09:30:39;;;;;;;13.48;2.78;;;;;;;21.48;39.09;100153.59;5055390;27;99024;-77
2023/03/30 09:33:14;;;;;;;8.07;2.10;;;;;;;21.37;39.05;100158.25;5056595;27;101702;-77
2023/03/30 09:35:50;;;;;;;4.85;2.00;;;;;;;21.25;39.25;100148.59;5048397;27;96908;-76
2023/03/30 09:38:20;;;;;;;7.53;2.17;;;;;;;21.23;39.65;100161.31;5058563;27;96923;-77
2023/03/30 09:41:06;;;;;;;7.07;2.45;;;;;;;21.22;39.26;100176.56;5049160;27;99205;-75
2023/03/30 09:43:34;;;;;;;6.88;2.20;;;;;;;21.08;39.73;100168.84;5060414;27;101762;-77
2023/03/30 09:46:02;;;;;;;10.38;2.17;;;;;;;21.04;39.76;100167.44;5061507;27;97589;-76
2023/03/30 09:48:28;;;;;;;10.90;1.98;;;;;;;21.02;40.01;100170.25;5057322;27;97379;-77
2023/03/30 09:50:56;;;;;;;7.05;2.00;;;;;;;21.08;39.70;100171.53;5058150;27;98975;-76
2023/03/30 09:53:24;;;;;;;9.55;2.47;;;;;;;21.38;39.69;100166.19;5064677;27;98976;-77
2023/03/30 09:55:59;;;;;;;11.88;2.60;;;;;;;21.48;39.11;100160.81;5057853;27;96817;-76
2023/03/30 09:58:30;;;;;;;13.00;1.85;;;;;;;21.52;38.83;100164.94;5063107;27;96769;-77
2023/03/30 10:01:07;;;;;;;9.70;1.98;;;;;;;21.62;39.01;100170.31;5056922;27;98892;-77
2023/03/30 10:03:35;;;;;;;9.32;2.35;;;;;;;21.42;39.18;100174.81;5058509;27;99263;-76
2023/03/30 10:06:08;;;;;;;6.55;1.85;;;;;;;21.22;39.49;100173.03;5054023;27;96846;-78
2023/03/30 10:08:41;;;;;;;10.00;2.20;;;;;;;21.11;40.34;100170.44;5053567;27;96693;-76
2023/03/30 10:11:08;;;;;;;14.43;2.70;;;;;;;21.08;40.47;100174.22;5055173;27;98943;-77
2023/03/30 10:13:37;;;;;;;7.35;1.70;;;;;;;20.73;41.17;100177.31;5055732;27;96882;-77
2023/03/30 10:16:06;;;;;;;9.45;1.85;;;;;;;20.44;41.70;100184.31;5056081;27;97593;-77
2023/03/30 10:18:38;;;;;;;18.65;2.63;;;;;;;20.44;41.79;100178.97;5055299;27;97373;-77
2023/03/30 10:21:16;;;;;;;8.30;2.28;;;;;;;20.59;41.75;100183.03;5053290;27;99034;-77
2023/03/30 10:23:45;;;;;;;10.52;2.40;;;;;;;20.74;41.65;100184.41;5048711;27;98525;-76
2023/03/30 10:26:16;;;;;;;11.15;2.17;;;;;;;20.63;41.87;100184.44;5055749;27;96839;-77
2023/03/30 10:28:52;;;;;;;8.00;2.33;;;;;;;20.50;42.17;100183.78;5063983;27;97139;-76
2023/03/30 10:31:19;;;;;;;8.18;2.17;;;;;;;20.65;41.74;100175.28;5059462;27;99152;-76
2023/03/30 10:33:45;;;;;;;7.95;2.20;;;;;;;20.92;41.66;100184.63;5064208;27;101364;-76
2023/03/30 10:36:15;;;;;;;10.55;2.78;;;;;;;20.96;41.67;100188.72;5059365;27;96775;-77
2023/03/30 10:38:43;;;;;;;7.20;1.80;;;;;;;21.20;41.17;100178.53;5057482;27;97177;-77
2023/03/30 10:41:22;;;;;;;6.47;2.05;;;;;;;21.26;40.64;100169.97;5057693;27;98983;-75
2023/03/30 10:43:49;;;;;;;9.48;2.05;;;;;;;21.21;40.70;100164.13;5058188;27;98826;-75
2023/03/30 10:46:18;;;;;;;11.73;1.80;;;;;;;21.12;41.17;100167.59;5056629;27;96795;-73
2023/03/30 10:48:55;;;;;;;11.18;2.28;;;;;;;21.18;41.34;100166.25;5057471;27;96765;-73
2023/03/30 10:51:34;;;;;;;7.22;1.90;;;;;;;21.38;40.79;100157.25;5059773;27;99459;-74
2023/03/30 10:54:08;;;;;;;11.75;1.90;;;;;;;21.45;40.75;100153.03;5058417;27;98910;-72
2023/03/30 10:56:41;;;;;;;10.10;2.80;;;;;;;21.77;40.27;100152.81;5058933;27;97833;-72
2023/03/30 10:59:30;;;;;;;5.45;2.15;;;;;;;21.59;40.59;100157.16;5060587;27;96893;-73
2023/03/30 11:02:17;;;;;;;11.25;2.55;;;;;;;21.67;40.18;100152.78;5056262;27;98967;-72
2023/03/30 11:04:46;;;;;;;8.10;1.75;;;;;;;21.87;40.05;100154.50;5062050;27;98777;-72
2023/03/30 11:07:21;;;;;;;6.88;2.10;;;;;;;21.93;39.93;100149.53;5061615;27;96743;-72
2023/03/30 11:09:53;;;;;;;6.13;1.93;;;;;;;21.50;40.60;100155.31;5064746;27;97370;-72
2023/03/30 11:12:21;;;;;;;12.32;2.58;;;;;;;21.37;40.79;100151.03;5057570;27;98970;-71
2023/03/30 11:14:55;;;;;;;9.73;2.28;;;;;;;21.46;41.10;100152.06;5058040;27;98883;-72
2023/03/30 11:17:25;;;;;;;29.15;2.63;;;;;;;21.72;40.49;100147.84;5058689;27;96827;-73
2023/03/30 11:19:55;;;;;;;26.15;2.90;;;;;;;21.34;40.87;100145.06;5056129;27;97177;-72
2023/03/30 11:22:32;;;;;;;9.63;2.47;;;;;;;21.14;41.48;100138.75;5063652;27;99360;-73
2023/03/30 11:24:59;;;;;;;11.55;2.40;;;;;;;20.89;42.26;100156.19;5053397;27;98776;-72
2023/03/30 11:27:29;;;;;;;7.63;2.50;;;;;;;20.81;42.51;100141.72;5052272;27;98348;-73
2023/03/30 11:30:02;;;;;;;13.35;1.83;;;;;;;20.75;42.84;100145.78;5062180;27;97254;-72
2023/03/30 11:32:33;;;;;;;73.03;4.82;;;;;;;20.64;43.01;100136.00;5060952;27;99068;-73
2023/03/30 11:35:10;;;;;;;7.55;2.10;;;;;;;20.50;43.58;100138.16;5051147;27;99164;-71
2023/03/30 11:37:46;;;;;;;9.95;2.17;;;;;;;20.56;43.55;100137.63;5053545;27;96867;-73